createdAt,value
2023-04-25T00:01:27.357Z,5.14
2023-04-25T00:03:56.702Z,5.20
2023-04-25T00:06:27.486Z,5.24
2023-04-25T00:08:57.885Z,5.42
2023-04-25T00:11:26.563Z,5.53
2023-04-25T00:13:55.389Z,5.56
2023-04-25T00:16:24.904Z,5.61
2023-04-25T00:18:54.820Z,5.74
2023-04-25T00:21:25.373Z,5.81
2023-04-25T00:23:54.499Z,5.81
2023-04-25T00:26:24.146Z,5.80
2023-04-25T00:28:52.747Z,5.71
2023-04-25T00:31:21.522Z,5.63
2023-04-25T00:33:50.742Z,5.60
2023-04-25T00:36:19.636Z,5.50
2023-04-25T00:38:48.289Z,5.42
2023-04-25T00:41:17.019Z,5.38
2023-04-25T00:43:48.279Z,5.39
2023-04-25T00:46:17.134Z,5.31
2023-04-25T00:48:46.449Z,5.24
2023-04-25T00:51:21.155Z,5.21
2023-04-25T00:53:51.158Z,5.18
2023-04-25T00:56:20.941Z,5.14
2023-04-25T00:58:54.642Z,5.13
2023-04-25T01:01:23.510Z,5.10
2023-04-25T01:03:52.777Z,5.03
2023-04-25T01:06:21.911Z,4.87
2023-04-25T01:08:50.541Z,4.79
2023-04-25T01:11:19.323Z,4.59
2023-04-25T01:13:48.030Z,4.31
2023-04-25T01:16:17.986Z,4.20
2023-04-25T01:18:47.526Z,3.97
2023-04-25T01:21:17.583Z,3.83
2023-04-25T01:23:48.166Z,3.74
2023-04-25T01:26:17.528Z,3.69
2023-04-25T01:28:47.118Z,3.64
2023-04-25T01:31:17.689Z,3.61
2023-04-25T01:33:46.540Z,3.49
2023-04-25T01:36:17.377Z,3.45
2023-04-25T01:38:47.356Z,3.55
2023-04-25T01:41:16.291Z,3.65
2023-04-25T01:43:45.056Z,3.69
2023-04-25T01:46:14.680Z,3.83
2023-04-25T01:48:43.453Z,3.87
2023-04-25T01:51:12.628Z,3.87
2023-04-25T01:53:43.417Z,3.91
2023-04-25T01:56:12.098Z,3.95
2023-04-25T01:58:41.683Z,4.08
2023-04-25T02:01:30.397Z,4.06
2023-04-25T02:04:15.784Z,4.18
2023-04-25T02:06:44.592Z,4.27
2023-04-25T02:09:16.150Z,4.29
2023-04-25T02:11:49.646Z,4.41
2023-04-25T02:14:41.392Z,4.37
2023-04-25T02:17:17.198Z,4.29
2023-04-25T02:19:46.933Z,4.37
2023-04-25T02:22:15.834Z,4.46
2023-04-25T02:24:45.598Z,4.45
2023-04-25T02:27:14.714Z,4.37
2023-04-25T02:29:43.410Z,4.44
2023-04-25T02:32:13.380Z,4.50
2023-04-25T02:34:42.946Z,4.60
2023-04-25T02:37:11.484Z,4.74
2023-04-25T02:39:40.084Z,4.82
2023-04-25T02:42:09.780Z,4.92
2023-04-25T02:44:38.336Z,5.02
2023-04-25T02:47:07.711Z,5.07
2023-04-25T02:49:36.301Z,5.13
2023-04-25T02:52:05.330Z,5.16
2023-04-25T02:54:34.044Z,5.18
2023-04-25T02:57:03.441Z,5.23
2023-04-25T02:59:38.946Z,5.26
2023-04-25T03:02:07.759Z,5.23
2023-04-25T03:04:36.485Z,5.18
2023-04-25T03:07:05.893Z,5.13
2023-04-25T03:09:34.717Z,5.08
2023-04-25T03:12:03.159Z,5.09
2023-04-25T03:14:31.999Z,5.18
2023-04-25T03:17:02.577Z,5.25
2023-04-25T03:19:31.480Z,5.31
2023-04-25T03:22:00.213Z,5.26
2023-04-25T03:24:29.239Z,5.17
2023-04-25T03:26:57.920Z,5.17
2023-04-25T03:29:27.593Z,5.21
2023-04-25T03:31:58.052Z,5.19
2023-04-25T03:34:28.319Z,5.13
2023-04-25T03:36:57.351Z,5.10
2023-04-25T03:39:26.385Z,5.07
2023-04-25T03:41:55.944Z,5.04
2023-04-25T03:44:25.454Z,5.00
2023-04-25T03:46:54.290Z,4.95
2023-04-25T03:49:23.370Z,4.89
2023-04-25T03:52:02.298Z,4.89
2023-04-25T03:54:36.283Z,4.73
2023-04-25T03:57:11.383Z,4.62
2023-04-25T03:59:41.850Z,4.55
2023-04-25T04:02:13.674Z,4.37
2023-04-25T04:04:45.345Z,4.21
2023-04-25T04:07:15.794Z,4.07
2023-04-25T04:09:47.671Z,3.97
2023-04-25T04:12:22.349Z,3.91
2023-04-25T04:14:50.793Z,3.89
2023-04-25T04:17:19.012Z,3.80
2023-04-25T04:19:47.517Z,3.76
2023-04-25T04:22:23.351Z,3.72
2023-04-25T04:24:53.860Z,3.71
2023-04-25T04:27:31.389Z,3.69
2023-04-25T04:30:25.218Z,3.75
2023-04-25T04:33:00.225Z,3.79
2023-04-25T04:35:29.030Z,3.76
2023-04-25T04:37:59.002Z,3.79
2023-04-25T04:40:32.243Z,3.76
2023-04-25T04:43:13.361Z,3.78
2023-04-25T04:45:48.721Z,3.95
2023-04-25T04:48:43.726Z,4.11
2023-04-25T04:51:12.330Z,4.19
2023-04-25T04:54:03.496Z,4.30
2023-04-25T04:56:44.676Z,4.32
2023-04-25T04:59:23.545Z,4.48
2023-04-25T05:02:04.335Z,4.56
2023-04-25T05:05:06.022Z,4.73
2023-04-25T05:07:55.133Z,4.95
2023-04-25T05:10:48.225Z,5.11
2023-04-25T05:13:26.396Z,5.20
2023-04-25T05:16:05.958Z,5.30
2023-04-25T05:18:49.795Z,5.45
2023-04-25T05:21:32.351Z,5.48
2023-04-25T05:24:30.668Z,5.61
2023-04-25T05:27:20.960Z,5.69
2023-04-25T05:30:11.012Z,5.81
2023-04-25T05:32:59.201Z,5.74
2023-04-25T05:35:29.803Z,5.75
2023-04-25T05:37:58.278Z,5.71
2023-04-25T05:40:41.921Z,5.86
2023-04-25T05:43:20.304Z,5.96
2023-04-25T05:46:06.156Z,6.18
2023-04-25T05:48:47.995Z,6.25
2023-04-25T05:51:35.143Z,6.46
2023-04-25T05:54:29.813Z,6.36
2023-04-25T05:56:59.498Z,6.43
2023-04-25T05:59:29.536Z,6.41
2023-04-25T06:01:59.056Z,6.56
2023-04-25T06:04:29.715Z,6.58
2023-04-25T06:06:58.685Z,6.74
2023-04-25T06:09:27.325Z,7.10
2023-04-25T06:11:56.522Z,7.13
2023-04-25T06:14:26.690Z,6.97
2023-04-25T06:16:58.014Z,6.75
2023-04-25T06:19:26.942Z,6.78
2023-04-25T06:21:55.647Z,7.00
2023-04-25T06:24:24.573Z,7.21
2023-04-25T06:26:53.797Z,7.00
2023-04-25T06:29:23.007Z,7.14
2023-04-25T06:31:52.564Z,6.91
2023-04-25T06:34:22.962Z,6.82
2023-04-25T06:36:51.484Z,6.89
2023-04-25T06:39:21.135Z,6.84
2023-04-25T06:41:51.794Z,7.81
2023-04-25T06:44:43.326Z,8.51
2023-04-25T06:47:13.692Z,8.91
2023-04-25T06:49:46.177Z,9.34
2023-04-25T06:52:15.088Z,9.27
2023-04-25T06:54:44.362Z,9.13
2023-04-25T06:57:23.574Z,8.48
2023-04-25T06:59:54.372Z,7.78
2023-04-25T07:02:23.571Z,7.85
2023-04-25T07:04:57.342Z,8.03
2023-04-25T07:07:26.268Z,8.07
2023-04-25T07:09:58.024Z,8.06
2023-04-25T07:12:27.140Z,8.27
2023-04-25T07:14:55.891Z,8.23
2023-04-25T07:17:24.977Z,8.12
2023-04-25T07:19:55.833Z,8.02
2023-04-25T07:22:24.669Z,8.06
2023-04-25T07:24:54.367Z,7.79
2023-04-25T07:27:25.482Z,7.94
2023-04-25T07:29:58.564Z,8.07
2023-04-25T07:32:29.030Z,8.21
2023-04-25T07:34:58.962Z,8.10
2023-04-25T07:37:28.356Z,8.21
2023-04-25T07:40:13.534Z,8.57
2023-04-25T07:42:55.521Z,8.37
2023-04-25T07:45:35.832Z,8.52
2023-04-25T07:48:06.709Z,8.29
2023-04-25T07:50:40.620Z,8.32
2023-04-25T07:53:09.978Z,8.37
2023-04-25T07:55:46.453Z,8.59
2023-04-25T07:58:22.336Z,8.79
2023-04-25T08:00:54.985Z,8.89
2023-04-25T08:03:39.566Z,8.86
2023-04-25T08:06:15.326Z,9.05
2023-04-25T08:09:19.706Z,9.23
2023-04-25T08:11:49.187Z,9.42
2023-04-25T08:14:22.629Z,9.70
2023-04-25T08:16:51.615Z,9.80
2023-04-25T08:19:22.632Z,9.82
2023-04-25T08:21:53.040Z,9.89
2023-04-25T08:24:28.752Z,10.19
2023-04-25T08:26:58.066Z,10.35
2023-04-25T08:29:29.604Z,9.83
2023-04-25T08:31:58.620Z,9.96
2023-04-25T08:34:27.481Z,10.30
2023-04-25T08:36:57.570Z,10.30
2023-04-25T08:39:46.215Z,10.34
2023-04-25T08:42:21.372Z,10.54
2023-04-25T08:44:51.212Z,10.21
2023-04-25T08:47:24.070Z,9.70
2023-04-25T08:49:59.618Z,10.56
2023-04-25T08:52:37.548Z,11.22
2023-04-25T08:55:11.846Z,12.18
2023-04-25T08:57:42.299Z,11.51
2023-04-25T09:00:12.171Z,11.36
2023-04-25T09:02:44.998Z,10.55
2023-04-25T09:05:16.527Z,10.06
2023-04-25T09:07:50.482Z,9.82
2023-04-25T09:10:19.899Z,9.23
2023-04-25T09:13:05.849Z,8.97
2023-04-25T09:15:52.295Z,8.54
2023-04-25T09:18:48.349Z,8.38
2023-04-25T09:21:18.046Z,7.99
2023-04-25T09:23:52.793Z,7.74
2023-04-25T09:26:23.538Z,7.84
2023-04-25T09:29:08.957Z,8.08
2023-04-25T09:31:41.637Z,8.26
2023-04-25T09:34:16.631Z,8.39
2023-04-25T09:36:49.953Z,8.86
2023-04-25T09:39:35.819Z,9.47
2023-04-25T09:42:13.477Z,10.19
2023-04-25T09:44:46.777Z,11.73
2023-04-25T09:47:18.994Z,12.63
2023-04-25T09:49:48.021Z,11.84
2023-04-25T09:52:18.474Z,11.19
2023-04-25T09:55:21.727Z,11.22
2023-04-25T09:57:55.770Z,10.91
2023-04-25T10:00:27.613Z,10.83
2023-04-25T10:02:58.109Z,10.57
2023-04-25T10:05:49.282Z,10.41
2023-04-25T10:08:20.605Z,10.15
2023-04-25T10:10:51.957Z,10.42
2023-04-25T10:13:21.843Z,9.84
2023-04-25T10:15:50.993Z,9.02
2023-04-25T10:18:20.900Z,8.95
2023-04-25T10:20:49.274Z,8.77
2023-04-25T10:23:18.874Z,8.75
2023-04-25T10:25:49.223Z,8.95
2023-04-25T10:28:17.680Z,10.09
2023-04-25T10:31:00.656Z,10.37
2023-04-25T10:33:36.525Z,11.29
2023-04-25T10:36:14.258Z,13.07
2023-04-25T10:38:44.418Z,14.45
2023-04-25T10:41:15.703Z,14.67
2023-04-25T10:43:45.969Z,15.14
2023-04-25T10:46:23.789Z,14.91
2023-04-25T10:48:55.035Z,15.17
2023-04-25T10:51:30.730Z,14.95
2023-04-25T10:54:05.128Z,14.30
2023-04-25T10:56:41.143Z,13.37
2023-04-25T10:59:12.525Z,14.56
2023-04-25T11:01:43.475Z,12.87
2023-04-25T11:04:26.569Z,12.13
2023-04-25T11:07:12.905Z,14.49
2023-04-25T11:09:42.982Z,15.40
2023-04-25T11:12:14.233Z,13.42
2023-04-25T11:14:42.959Z,13.05
2023-04-25T11:17:12.612Z,12.49
2023-04-25T11:19:41.545Z,13.66
2023-04-25T11:22:12.192Z,15.83
2023-04-25T11:24:41.006Z,16.30
2023-04-25T11:27:10.521Z,14.14
2023-04-25T11:29:40.459Z,13.56
2023-04-25T11:32:09.868Z,15.27
2023-04-25T11:34:38.520Z,15.77
2023-04-25T11:37:07.776Z,16.96
2023-04-25T11:39:36.688Z,17.13
2023-04-25T11:42:13.540Z,14.43
2023-04-25T11:44:44.234Z,14.52
2023-04-25T11:47:12.917Z,13.59
2023-04-25T11:49:42.528Z,13.29
2023-04-25T11:52:11.364Z,13.17
2023-04-25T11:54:40.986Z,14.00
2023-04-25T11:57:10.168Z,13.20
2023-04-25T11:59:39.088Z,12.54
2023-04-25T12:02:09.014Z,12.05
2023-04-25T12:04:37.978Z,11.86
2023-04-25T12:07:06.768Z,11.37
2023-04-25T12:09:36.499Z,11.10
2023-04-25T12:12:05.723Z,11.13
2023-04-25T12:14:36.783Z,10.97
2023-04-25T12:17:09.281Z,11.33
2023-04-25T12:19:42.116Z,11.70
2023-04-25T12:22:23.389Z,11.56
2023-04-25T12:24:54.333Z,11.54
2023-04-25T12:27:22.807Z,11.40
2023-04-25T12:29:56.732Z,11.16
2023-04-25T12:32:27.346Z,11.14
2023-04-25T12:34:56.086Z,10.61
2023-04-25T12:37:24.931Z,10.43
2023-04-25T12:39:53.618Z,10.70
2023-04-25T12:42:22.335Z,11.28
2023-04-25T12:44:50.617Z,12.35
2023-04-25T12:47:19.319Z,12.01
2023-04-25T12:49:49.759Z,11.73
2023-04-25T12:52:17.951Z,11.52
2023-04-25T12:54:46.748Z,11.10
2023-04-25T12:57:15.416Z,11.14
2023-04-25T12:59:44.278Z,11.26
2023-04-25T13:02:13.681Z,11.28
2023-04-25T13:04:42.405Z,11.45
2023-04-25T13:07:12.205Z,11.79
2023-04-25T13:09:40.808Z,12.83
2023-04-25T13:12:09.619Z,13.32
2023-04-25T13:14:38.261Z,12.49
2023-04-25T13:17:07.781Z,12.21
2023-04-25T13:19:36.957Z,11.84
2023-04-25T13:22:05.814Z,11.10
2023-04-25T13:24:35.587Z,10.67
2023-04-25T13:27:04.320Z,10.86
2023-04-25T13:29:35.745Z,10.76
2023-04-25T13:32:04.890Z,11.04
2023-04-25T13:34:33.222Z,11.28
2023-04-25T13:37:01.564Z,11.35
2023-04-25T13:39:30.153Z,11.33
2023-04-25T13:41:59.949Z,11.53
2023-04-25T13:44:28.679Z,12.06
2023-04-25T13:46:58.121Z,12.10
2023-04-25T13:49:26.742Z,11.95
2023-04-25T13:51:55.071Z,11.85
2023-04-25T13:54:24.430Z,12.22
2023-04-25T13:56:53.928Z,12.90
2023-04-25T13:59:24.762Z,13.31
2023-04-25T14:01:53.606Z,13.65
2023-04-25T14:04:22.383Z,12.74
2023-04-25T14:06:51.763Z,12.86
2023-04-25T14:09:21.960Z,13.98
2023-04-25T14:11:50.596Z,15.51
2023-04-25T14:14:18.883Z,14.22
2023-04-25T14:16:50.017Z,13.18
2023-04-25T14:19:20.322Z,12.46
2023-04-25T14:21:50.809Z,12.71
2023-04-25T14:24:19.358Z,12.58
2023-04-25T14:26:48.033Z,12.28
2023-04-25T14:29:16.653Z,11.66
2023-04-25T14:31:46.202Z,11.07
2023-04-25T14:34:16.316Z,11.08
2023-04-25T14:36:44.975Z,10.79
2023-04-25T14:39:15.117Z,10.78
2023-04-25T14:41:43.707Z,10.70
2023-04-25T14:44:12.398Z,10.60
2023-04-25T14:46:41.446Z,10.52
2023-04-25T14:49:10.090Z,10.61
2023-04-25T14:51:40.116Z,10.50
2023-04-25T14:54:08.773Z,10.41
2023-04-25T14:56:37.477Z,10.59
2023-04-25T14:59:06.767Z,10.53
2023-04-25T15:01:35.760Z,10.72
2023-04-25T15:04:05.466Z,10.75
2023-04-25T15:06:34.272Z,10.66
2023-04-25T15:09:04.093Z,10.62
2023-04-25T15:11:32.827Z,10.37
2023-04-25T15:14:01.512Z,10.47
2023-04-25T15:16:31.886Z,10.66
2023-04-25T15:19:00.222Z,10.70
2023-04-25T15:21:28.839Z,10.59
2023-04-25T15:23:57.549Z,10.66
2023-04-25T15:26:27.254Z,10.64
2023-04-25T15:28:56.323Z,10.81
2023-04-25T15:31:25.238Z,10.60
2023-04-25T15:33:54.259Z,10.67
2023-04-25T15:36:22.821Z,10.74
2023-04-25T15:38:51.238Z,10.95
2023-04-25T15:41:20.299Z,11.28
2023-04-25T15:43:50.948Z,11.32
2023-04-25T15:46:19.924Z,11.24
2023-04-25T15:48:48.497Z,11.18
2023-04-25T15:51:17.334Z,10.96
2023-04-25T15:53:47.191Z,11.31
2023-04-25T15:56:15.919Z,11.28
2023-04-25T15:58:44.544Z,11.37
2023-04-25T16:01:15.047Z,12.06
2023-04-25T16:03:44.064Z,12.40
2023-04-25T16:06:12.774Z,12.23
2023-04-25T16:08:41.387Z,12.25
2023-04-25T16:11:10.152Z,11.44
2023-04-25T16:13:38.828Z,11.12
2023-04-25T16:16:08.222Z,11.03
2023-04-25T16:18:38.299Z,10.62
2023-04-25T16:21:09.073Z,10.39
2023-04-25T16:23:37.871Z,10.32
2023-04-25T16:26:06.192Z,10.36
2023-04-25T16:28:34.866Z,10.21
2023-04-25T16:31:03.645Z,10.15
2023-04-25T16:33:32.335Z,10.08
2023-04-25T16:36:02.134Z,10.11
2023-04-25T16:38:30.799Z,10.11
2023-04-25T16:40:59.495Z,10.11
2023-04-25T16:43:28.382Z,10.14
2023-04-25T16:45:56.969Z,10.08
2023-04-25T16:48:26.264Z,10.06
2023-04-25T16:50:55.620Z,10.32
2023-04-25T16:53:25.694Z,10.14
2023-04-25T16:55:54.378Z,9.86
2023-04-25T16:58:23.389Z,9.64
2023-04-25T17:00:52.455Z,9.58
2023-04-25T17:03:22.081Z,9.43
2023-04-25T17:05:54.863Z,9.42
2023-04-25T17:08:24.562Z,9.52
2023-04-25T17:10:53.014Z,9.49
2023-04-25T17:13:21.725Z,9.47
2023-04-25T17:15:59.440Z,9.30
2023-04-25T17:18:28.263Z,9.15
2023-04-25T17:20:57.330Z,9.21
2023-04-25T17:23:27.008Z,9.24
2023-04-25T17:25:56.158Z,9.25
2023-04-25T17:28:24.806Z,9.09
2023-04-25T17:30:53.963Z,9.22
2023-04-25T17:33:26.927Z,9.18
2023-04-25T17:35:58.876Z,9.28
2023-04-25T17:38:28.927Z,9.25
2023-04-25T17:40:57.625Z,9.32
2023-04-25T17:43:27.705Z,9.26
2023-04-25T17:45:57.344Z,9.01
2023-04-25T17:48:26.896Z,8.94
2023-04-25T17:50:58.730Z,8.81
2023-04-25T17:53:28.843Z,8.63
2023-04-25T17:55:57.619Z,8.54
2023-04-25T17:58:26.123Z,8.45
2023-04-25T18:00:54.990Z,8.48
2023-04-25T18:03:23.848Z,8.42
2023-04-25T18:05:52.644Z,8.45
2023-04-25T18:08:22.612Z,8.20
2023-04-25T18:10:52.695Z,8.21
2023-04-25T18:13:21.267Z,8.07
2023-04-25T18:15:51.664Z,8.02
2023-04-25T18:18:25.365Z,7.95
2023-04-25T18:20:56.385Z,7.99
2023-04-25T18:23:25.353Z,7.83
2023-04-25T18:25:55.119Z,7.98
2023-04-25T18:28:23.698Z,7.98
2023-04-25T18:30:52.326Z,8.01
2023-04-25T18:33:21.510Z,7.93
2023-04-25T18:35:58.660Z,7.93
2023-04-25T18:41:15.621Z,7.75
2023-04-25T18:43:50.503Z,7.65
2023-04-25T18:46:22.492Z,7.52
2023-04-25T18:48:53.502Z,7.36
2023-04-25T18:51:24.677Z,7.34
2023-04-25T18:53:54.709Z,7.29
2023-04-25T18:56:25.968Z,7.13
2023-04-25T18:58:55.473Z,7.13
2023-04-25T19:01:25.707Z,7.02
2023-04-25T19:03:56.624Z,7.03
2023-04-25T19:06:28.983Z,7.13
2023-04-25T19:08:58.492Z,7.12
2023-04-25T19:11:28.505Z,7.02
2023-04-25T19:13:57.136Z,7.03
2023-04-25T19:16:27.759Z,7.09
2023-04-25T19:18:58.058Z,7.20
2023-04-25T19:21:27.170Z,7.11
2023-04-25T19:23:56.520Z,7.14
2023-04-25T19:26:25.330Z,6.94
2023-04-25T19:29:08.204Z,7.00
2023-04-25T19:31:38.258Z,6.95
2023-04-25T19:34:08.991Z,7.06
2023-04-25T19:36:39.749Z,6.91
2023-04-25T19:39:09.297Z,6.85
2023-04-25T19:41:39.538Z,6.86
2023-04-25T19:44:10.714Z,6.93
2023-04-25T19:46:39.725Z,7.04
2023-04-25T19:49:09.489Z,6.97
2023-04-25T19:51:38.361Z,6.91
2023-04-25T19:54:07.097Z,6.94
2023-04-25T19:56:35.877Z,6.89
2023-04-25T19:59:04.141Z,6.89
2023-04-25T20:01:33.779Z,6.95
2023-04-25T20:04:02.438Z,6.96
2023-04-25T20:06:30.962Z,6.96
2023-04-25T20:08:59.467Z,6.83
2023-04-25T20:11:29.480Z,6.91
2023-04-25T20:13:58.054Z,6.81
2023-04-25T20:16:26.885Z,6.82
2023-04-25T20:18:58.567Z,6.80
2023-04-25T20:21:27.442Z,6.90
2023-04-25T20:23:56.343Z,6.85
2023-04-25T20:26:25.859Z,6.84
2023-04-25T20:28:54.818Z,6.67
2023-04-25T20:31:23.702Z,6.65
2023-04-25T20:33:52.337Z,6.65
2023-04-25T20:36:23.379Z,6.67
2023-04-25T20:38:52.267Z,6.64
2023-04-25T20:41:21.331Z,6.56
2023-04-25T20:43:52.214Z,6.44
2023-04-25T20:46:21.424Z,6.41
2023-04-25T20:48:52.789Z,6.53
2023-04-25T20:51:23.123Z,6.48
2023-04-25T20:53:52.125Z,6.53
2023-04-25T20:56:20.854Z,6.36
2023-04-25T20:58:49.927Z,6.36
2023-04-25T21:01:20.041Z,6.33
2023-04-25T21:03:50.078Z,6.39
2023-04-25T21:06:19.130Z,6.35
2023-04-25T21:08:49.409Z,6.47
2023-04-25T21:11:19.513Z,6.25
2023-04-25T21:13:48.225Z,6.36
2023-04-25T21:16:16.875Z,6.29
2023-04-25T21:18:45.504Z,6.32
2023-04-25T21:21:14.128Z,6.33
2023-04-25T21:23:43.909Z,6.28
2023-04-25T21:26:13.692Z,6.24
2023-04-25T21:28:42.303Z,6.18
2023-04-25T21:31:11.085Z,6.26
2023-04-25T21:33:40.010Z,6.30
2023-04-25T21:36:08.965Z,6.27
2023-04-25T21:38:37.985Z,6.24
2023-04-25T21:41:06.846Z,6.17
2023-04-25T21:43:37.572Z,6.21
2023-04-25T21:46:22.492Z,6.21
2023-04-25T21:48:52.336Z,6.17
2023-04-25T21:51:21.143Z,6.20
2023-04-25T21:53:49.800Z,6.21
2023-04-25T21:56:18.407Z,6.19
2023-04-25T21:58:48.867Z,6.13
2023-04-25T22:01:17.546Z,6.12
2023-04-25T22:03:46.079Z,6.12
2023-04-25T22:06:14.779Z,6.16
2023-04-25T22:08:44.111Z,6.23
2023-04-25T22:11:13.695Z,6.13
2023-04-25T22:13:42.433Z,6.05
2023-04-25T22:16:12.380Z,6.04
2023-04-25T22:18:42.293Z,5.97
2023-04-25T22:21:11.126Z,5.85
2023-04-25T22:23:39.887Z,5.83
2023-04-25T22:26:09.973Z,5.90
2023-04-25T22:28:39.815Z,6.01
2023-04-25T22:31:08.611Z,5.95
2023-04-25T22:33:38.653Z,5.88
2023-04-25T22:36:07.721Z,5.87
2023-04-25T22:38:36.008Z,5.86
2023-04-25T22:41:04.667Z,5.75
2023-04-25T22:43:32.973Z,5.69
2023-04-25T22:46:03.420Z,5.74
2023-04-25T22:48:32.121Z,5.79
2023-04-25T22:51:06.216Z,5.75
2023-04-25T22:53:37.493Z,5.69
2023-04-25T22:56:06.235Z,5.64
2023-04-25T22:58:37.222Z,5.66
2023-04-25T23:01:06.905Z,5.54
2023-04-25T23:03:35.748Z,5.57
2023-04-25T23:06:06.154Z,5.58
2023-04-25T23:08:35.293Z,5.44
2023-04-25T23:11:07.974Z,5.24
2023-04-25T23:13:37.380Z,5.30
2023-04-25T23:16:10.753Z,5.30
2023-04-25T23:18:40.472Z,5.23
2023-04-25T23:21:11.532Z,5.22
2023-04-25T23:23:40.708Z,5.27
2023-04-25T23:26:09.857Z,5.42
2023-04-25T23:28:41.666Z,5.42
2023-04-25T23:31:11.707Z,5.36
2023-04-25T23:33:40.494Z,5.36
2023-04-25T23:36:19.861Z,5.30
2023-04-25T23:38:48.655Z,5.38
2023-04-25T23:41:18.142Z,5.36
2023-04-25T23:43:46.836Z,5.30
2023-04-25T23:46:15.671Z,5.36
2023-04-25T23:48:44.309Z,5.35
2023-04-25T23:51:14.003Z,5.42
2023-04-25T23:53:42.647Z,5.37
2023-04-25T23:56:11.388Z,5.37
2023-04-25T23:58:40.075Z,5.23
